Time;durP1;ratioP1;P1;durP2;ratioP2;P2;SDS_P1;SDS_P2;PMS_P1;PMS_P2;Temp;Humidity;BMP_temperature;BMP_pressure;BME280_temperature;BME280_humidity;BME280_pressure;Samples;Min_cycle;Max_cycle;Signal;HPM_P1;HPM_P2
2021/01/20 00:00:20;;;;;;;2.63;1.30;;;;;;;;;;5036025;28;20433;-81
2021/01/20 00:02:46;;;;;;;2.93;1.33;;;;;;;;;;5035188;28;20805;-81
2021/01/20 00:05:12;;;;;;;3.03;1.60;;;;;;;;;;5034366;28;20453;-81
2021/01/20 00:07:38;;;;;;;3.63;1.80;;;;;;;;;;5036955;28;20449;-82
2021/01/20 00:10:05;;;;;;;1.73;1.20;;;;;;;;;;5036217;28;20527;-81
2021/01/20 00:12:31;;;;;;;1.87;1.30;;;;;;;;;;5035902;28;20437;-82
2021/01/20 00:14:57;;;;;;;5.50;1.50;;;;;;;;;;5034148;28;20448;-81
2021/01/20 00:17:23;;;;;;;2.20;1.30;;;;;;;;;;5034901;28;20795;-82
2021/01/20 00:19:49;;;;;;;1.90;1.03;;;;;;;;;;5028668;28;20457;-81
2021/01/20 00:22:15;;;;;;;1.97;1.30;;;;;;;;;;5036298;28;20427;-82
2021/01/20 00:24:41;;;;;;;1.50;1.00;;;;;;;;;;5035790;28;20476;-82
2021/01/20 00:27:07;;;;;;;1.50;1.10;;;;;;;;;;5035363;28;21066;-81
2021/01/20 00:29:34;;;;;;;2.77;1.10;;;;;;;;;;5031018;28;20440;-81
2021/01/20 00:32:00;;;;;;;1.57;1.10;;;;;;;;;;5016570;28;20415;-80
2021/01/20 00:34:27;;;;;;;1.77;1.00;;;;;;;;;;5019707;28;20472;-82
2021/01/20 00:36:53;;;;;;;1.90;1.23;;;;;;;;;;5035878;28;20424;-82
2021/01/20 00:39:19;;;;;;;2.83;1.40;;;;;;;;;;5036381;28;20520;-81
2021/01/20 00:41:46;;;;;;;1.70;1.07;;;;;;;;;;5038690;28;20469;-82
2021/01/20 00:44:12;;;;;;;2.93;1.40;;;;;;;;;;5035139;28;20468;-82
2021/01/20 00:46:38;;;;;;;2.77;1.30;;;;;;;;;;5036697;28;20520;-81
2021/01/20 00:49:04;;;;;;;1.67;1.20;;;;;;;;;;5036352;28;20480;-81
2021/01/20 00:51:30;;;;;;;1.80;1.20;;;;;;;;;;5036252;28;20409;-81
2021/01/20 00:53:56;;;;;;;1.97;1.30;;;;;;;;;;5034610;28;20478;-81
2021/01/20 00:56:22;;;;;;;2.00;1.20;;;;;;;;;;5018646;28;20805;-82
2021/01/20 00:58:48;;;;;;;1.90;0.80;;;;;;;;;;5016020;28;20524;-82
2021/01/20 01:01:14;;;;;;;1.53;0.97;;;;;;;;;;5033437;28;20880;-80
2021/01/20 01:03:40;;;;;;;2.23;1.30;;;;;;;;;;5035530;28;20524;-80
2021/01/20 01:06:06;;;;;;;1.73;1.10;;;;;;;;;;5034104;28;20592;-80
2021/01/20 01:08:32;;;;;;;1.50;0.80;;;;;;;;;;5035169;28;20454;-80
2021/01/20 01:10:58;;;;;;;1.90;1.00;;;;;;;;;;5034036;28;20437;-80
2021/01/20 01:13:24;;;;;;;1.70;0.90;;;;;;;;;;5033948;28;20493;-81
2021/01/20 01:15:50;;;;;;;1.70;1.00;;;;;;;;;;5034275;28;20430;-81
2021/01/20 01:18:17;;;;;;;1.77;1.00;;;;;;;;;;5035190;28;20417;-80
2021/01/20 01:20:43;;;;;;;2.60;0.90;;;;;;;;;;5034230;28;20441;-81
2021/01/20 01:23:09;;;;;;;2.57;0.90;;;;;;;;;;5035819;28;20419;-80
2021/01/20 01:25:35;;;;;;;3.10;1.03;;;;;;;;;;5034430;28;20450;-81
2021/01/20 01:28:09;;;;;;;1.50;1.00;;;;;;;;;;5034341;28;20440;-80
2021/01/20 01:30:35;;;;;;;1.60;0.83;;;;;;;;;;5033073;28;20460;-81
2021/01/20 01:33:01;;;;;;;2.07;0.93;;;;;;;;;;5035409;28;20413;-82
2021/01/20 01:35:27;;;;;;;1.83;1.03;;;;;;;;;;5040955;28;21017;-81
2021/01/20 01:37:53;;;;;;;1.70;1.20;;;;;;;;;;5036658;28;20406;-81
2021/01/20 01:40:19;;;;;;;2.10;1.17;;;;;;;;;;5034940;28;20430;-81
2021/01/20 01:42:45;;;;;;;2.17;0.97;;;;;;;;;;5035665;28;20409;-81
2021/01/20 01:45:12;;;;;;;1.83;1.10;;;;;;;;;;5034632;28;20454;-80
2021/01/20 01:47:38;;;;;;;1.60;1.07;;;;;;;;;;5043551;28;20442;-78
2021/01/20 01:50:04;;;;;;;2.03;1.13;;;;;;;;;;5039672;28;20461;-80
2021/01/20 01:52:30;;;;;;;1.97;1.30;;;;;;;;;;5034235;28;20424;-79
2021/01/20 01:54:56;;;;;;;2.80;1.20;;;;;;;;;;5022391;28;20450;-80
2021/01/20 01:57:22;;;;;;;1.90;1.13;;;;;;;;;;5036028;28;20548;-81
2021/01/20 01:59:48;;;;;;;1.47;0.90;;;;;;;;;;5034791;28;20587;-80
2021/01/20 02:02:14;;;;;;;2.70;1.23;;;;;;;;;;5033574;28;20415;-81
2021/01/20 02:04:40;;;;;;;2.13;1.20;;;;;;;;;;5034154;28;20667;-79
2021/01/20 02:07:07;;;;;;;1.90;1.20;;;;;;;;;;5037182;28;20929;-80
2021/01/20 02:09:33;;;;;;;2.17;1.50;;;;;;;;;;5035931;28;20410;-80
2021/01/20 02:12:35;;;;;;;2.00;1.23;;;;;;;;;;5036082;28;20433;-79
2021/01/20 02:15:03;;;;;;;2.13;1.07;;;;;;;;;;4942332;29;20572;-80
2021/01/20 02:17:47;;;;;;;2.47;1.40;;;;;;;;;;5008465;28;20837;-80
2021/01/20 02:20:23;;;;;;;2.43;1.40;;;;;;;;;;5025266;28;20423;-79
2021/01/20 02:22:57;;;;;;;2.00;1.10;;;;;;;;;;5039761;28;20471;-80
2021/01/20 02:25:23;;;;;;;2.53;1.30;;;;;;;;;;5049279;22;20483;-72
2021/01/20 02:27:55;;;;;;;2.13;1.17;;;;;;;;;;5033870;28;20519;-72
2021/01/20 02:30:21;;;;;;;1.60;1.10;;;;;;;;;;5030502;28;20411;-72
2021/01/20 02:32:50;;;;;;;2.57;1.43;;;;;;;;;;5034009;28;20410;-72
2021/01/20 02:35:16;;;;;;;2.90;1.40;;;;;;;;;;5034108;28;20465;-72
2021/01/20 02:37:45;;;;;;;2.80;1.77;;;;;;;;;;5035395;28;20782;-72
2021/01/20 02:40:11;;;;;;;1.97;1.40;;;;;;;;;;5033475;28;20423;-73
2021/01/20 02:42:41;;;;;;;2.73;1.53;;;;;;;;;;5034653;28;20420;-72
2021/01/20 02:45:07;;;;;;;2.93;1.87;;;;;;;;;;5033506;28;20422;-72
2021/01/20 02:47:33;;;;;;;3.27;1.40;;;;;;;;;;5035079;28;20461;-72
2021/01/20 02:49:59;;;;;;;2.40;1.40;;;;;;;;;;5032727;28;20485;-72
2021/01/20 02:52:34;;;;;;;1.90;1.40;;;;;;;;;;5034590;28;21045;-72
2021/01/20 02:55:02;;;;;;;2.10;1.30;;;;;;;;;;5032322;28;20441;-73
2021/01/20 02:57:29;;;;;;;3.37;1.60;;;;;;;;;;5014860;28;20414;-72
2021/01/20 02:59:57;;;;;;;2.23;1.43;;;;;;;;;;5015078;28;20405;-72
2021/01/20 03:02:24;;;;;;;1.53;1.03;;;;;;;;;;5029924;28;20906;-72
2021/01/20 03:04:50;;;;;;;1.80;1.07;;;;;;;;;;5034546;28;20426;-72
2021/01/20 03:07:18;;;;;;;2.60;1.43;;;;;;;;;;5031987;28;21015;-72
2021/01/20 03:09:44;;;;;;;2.00;1.33;;;;;;;;;;5034805;28;20912;-72
2021/01/20 03:12:10;;;;;;;2.10;1.20;;;;;;;;;;5033735;28;20422;-72
2021/01/20 03:14:37;;;;;;;2.10;1.67;;;;;;;;;;5034061;28;20449;-72
2021/01/20 03:17:03;;;;;;;1.53;1.20;;;;;;;;;;5032659;28;20436;-72
2021/01/20 03:19:29;;;;;;;1.80;1.07;;;;;;;;;;5034378;28;20414;-72
2021/01/20 03:21:55;;;;;;;1.63;0.90;;;;;;;;;;5033309;28;20476;-72
2021/01/20 03:24:21;;;;;;;3.00;1.53;;;;;;;;;;5033583;28;20461;-72
2021/01/20 03:26:47;;;;;;;2.43;1.47;;;;;;;;;;5033012;28;20461;-71
2021/01/20 03:29:14;;;;;;;2.20;1.33;;;;;;;;;;5034208;28;20465;-72
2021/01/20 03:31:40;;;;;;;3.90;2.33;;;;;;;;;;5032973;28;20483;-71
2021/01/20 03:34:06;;;;;;;2.10;1.40;;;;;;;;;;5028460;28;20867;-71
2021/01/20 03:36:32;;;;;;;2.47;1.40;;;;;;;;;;5025338;28;20928;-71
2021/01/20 03:38:58;;;;;;;2.73;1.53;;;;;;;;;;5033666;28;20420;-71
2021/01/20 03:41:24;;;;;;;3.50;1.57;;;;;;;;;;5032856;28;20429;-71
2021/01/20 03:43:50;;;;;;;5.83;1.00;;;;;;;;;;5034048;28;20495;-72
2021/01/20 03:46:16;;;;;;;1.67;1.20;;;;;;;;;;5032758;28;20497;-71
2021/01/20 03:48:42;;;;;;;1.50;1.07;;;;;;;;;;5033586;28;20830;-71
2021/01/20 03:51:08;;;;;;;2.47;1.53;;;;;;;;;;5031704;28;20430;-71
2021/01/20 03:53:34;;;;;;;2.53;1.37;;;;;;;;;;5033830;28;20514;-72
2021/01/20 03:56:00;;;;;;;2.60;1.27;;;;;;;;;;5031520;28;20934;-71
2021/01/20 03:58:26;;;;;;;2.13;1.30;;;;;;;;;;5032519;28;20435;-71
2021/01/20 04:00:52;;;;;;;4.17;1.80;;;;;;;;;;5032516;28;20434;-71
2021/01/20 04:03:18;;;;;;;1.70;1.13;;;;;;;;;;5032230;28;20411;-71
2021/01/20 04:05:44;;;;;;;1.47;1.10;;;;;;;;;;5032412;28;20523;-71
2021/01/20 04:08:10;;;;;;;2.83;1.63;;;;;;;;;;5033625;28;20402;-72
2021/01/20 04:10:36;;;;;;;2.80;1.40;;;;;;;;;;5032021;28;20420;-71
2021/01/20 04:13:02;;;;;;;3.40;2.03;;;;;;;;;;5032156;28;20400;-72
2021/01/20 04:15:28;;;;;;;2.10;1.60;;;;;;;;;;5032724;28;20790;-71
2021/01/20 04:17:54;;;;;;;3.23;2.03;;;;;;;;;;5030910;28;20525;-71
2021/01/20 04:20:20;;;;;;;2.43;1.63;;;;;;;;;;5033240;28;20425;-71
2021/01/20 04:22:46;;;;;;;3.07;1.23;;;;;;;;;;5032156;28;20491;-71
2021/01/20 04:25:12;;;;;;;6.43;1.70;;;;;;;;;;5032985;28;20453;-71
2021/01/20 04:27:38;;;;;;;2.37;1.43;;;;;;;;;;5032048;28;20541;-72
2021/01/20 04:30:07;;;;;;;2.70;1.73;;;;;;;;;;5032878;28;20409;-71
2021/01/20 04:32:34;;;;;;;3.87;1.80;;;;;;;;;;5032006;28;20427;-71
2021/01/20 04:35:00;;;;;;;2.17;1.20;;;;;;;;;;5032337;28;20460;-71
2021/01/20 04:37:26;;;;;;;2.80;1.53;;;;;;;;;;5031961;28;20429;-71
2021/01/20 04:39:52;;;;;;;2.03;1.40;;;;;;;;;;5032978;28;20402;-72
2021/01/20 04:42:18;;;;;;;3.30;1.40;;;;;;;;;;5031807;28;20493;-71
2021/01/20 04:44:46;;;;;;;3.53;1.83;;;;;;;;;;5028810;28;20554;-72
2021/01/20 04:47:12;;;;;;;1.97;1.47;;;;;;;;;;5031941;28;20484;-72
2021/01/20 04:49:39;;;;;;;1.80;1.20;;;;;;;;;;5032852;28;20403;-71
2021/01/20 04:52:06;;;;;;;3.13;1.80;;;;;;;;;;5031724;28;20429;-72
2021/01/20 04:54:32;;;;;;;3.73;2.30;;;;;;;;;;5032656;28;20430;-71
2021/01/20 04:56:58;;;;;;;3.20;2.13;;;;;;;;;;5031839;28;20768;-72
2021/01/20 04:59:29;;;;;;;3.07;1.70;;;;;;;;;;5032891;28;20434;-72
2021/01/20 05:01:55;;;;;;;4.13;2.00;;;;;;;;;;5030960;28;20944;-72
2021/01/20 05:04:21;;;;;;;1.87;1.53;;;;;;;;;;5032965;28;20521;-72
2021/01/20 05:06:48;;;;;;;3.23;1.70;;;;;;;;;;5031995;28;20531;-71
2021/01/20 05:09:14;;;;;;;3.17;1.90;;;;;;;;;;5032608;28;20413;-71
2021/01/20 05:11:41;;;;;;;3.37;1.73;;;;;;;;;;5031341;28;20923;-72
2021/01/20 05:14:13;;;;;;;6.27;2.07;;;;;;;;;;5032333;28;20793;-72
2021/01/20 05:16:40;;;;;;;5.37;1.77;;;;;;;;;;5031695;28;20406;-72
2021/01/20 05:19:06;;;;;;;5.10;2.10;;;;;;;;;;5032601;28;20467;-72
2021/01/20 05:21:32;;;;;;;5.83;1.80;;;;;;;;;;5014720;28;20481;-72
2021/01/20 05:24:17;;;;;;;3.40;2.00;;;;;;;;;;5032412;28;20472;-72
2021/01/20 05:26:43;;;;;;;4.90;1.60;;;;;;;;;;5031737;28;20489;-72
2021/01/20 05:29:10;;;;;;;3.10;1.50;;;;;;;;;;5032432;28;20409;-72
2021/01/20 05:31:36;;;;;;;2.83;1.70;;;;;;;;;;5031194;28;20413;-72
2021/01/20 05:34:02;;;;;;;3.13;1.60;;;;;;;;;;5032299;28;20424;-72
2021/01/20 05:36:31;;;;;;;2.53;1.73;;;;;;;;;;5032113;28;20955;-72
2021/01/20 05:38:57;;;;;;;2.40;1.70;;;;;;;;;;5012950;28;20417;-72
2021/01/20 05:41:24;;;;;;;3.27;1.67;;;;;;;;;;5012976;28;20436;-72
2021/01/20 05:43:51;;;;;;;4.50;1.83;;;;;;;;;;5029963;28;20804;-71
2021/01/20 05:46:29;;;;;;;3.47;1.70;;;;;;;;;;5034221;28;20962;-72
2021/01/20 05:48:55;;;;;;;2.33;1.50;;;;;;;;;;5034767;28;20429;-72
2021/01/20 05:51:22;;;;;;;7.83;1.70;;;;;;;;;;5034603;28;20406;-72
2021/01/20 05:53:51;;;;;;;2.23;1.40;;;;;;;;;;5034552;28;20482;-72
2021/01/20 05:56:24;;;;;;;3.20;1.50;;;;;;;;;;5036307;28;20409;-72
2021/01/20 05:58:50;;;;;;;4.23;2.03;;;;;;;;;;5035230;28;20429;-72
2021/01/20 06:01:17;;;;;;;3.03;1.67;;;;;;;;;;5035809;28;20405;-72
2021/01/20 06:03:44;;;;;;;2.60;1.40;;;;;;;;;;5033674;28;20550;-72
2021/01/20 06:06:10;;;;;;;1.90;1.23;;;;;;;;;;5035820;28;20502;-72
2021/01/20 06:08:36;;;;;;;3.03;1.90;;;;;;;;;;5035020;28;20802;-72
2021/01/20 06:11:04;;;;;;;3.60;1.60;;;;;;;;;;5036320;28;20413;-72
2021/01/20 06:13:30;;;;;;;2.27;1.40;;;;;;;;;;5034142;28;20453;-72
2021/01/20 06:16:00;;;;;;;2.00;1.70;;;;;;;;;;5032977;28;20430;-71
2021/01/20 06:18:32;;;;;;;3.40;1.40;;;;;;;;;;5034040;28;20428;-72
2021/01/20 06:20:58;;;;;;;2.77;1.53;;;;;;;;;;5035994;28;20879;-72
2021/01/20 06:23:25;;;;;;;2.90;1.70;;;;;;;;;;5034576;28;20430;-72
2021/01/20 06:26:04;;;;;;;3.63;2.57;;;;;;;;;;5036109;28;20433;-72
2021/01/20 06:28:30;;;;;;;2.70;1.60;;;;;;;;;;5034490;28;20411;-72
2021/01/20 06:30:57;;;;;;;2.47;1.87;;;;;;;;;;5035602;28;20406;-72
2021/01/20 06:33:28;;;;;;;2.73;1.70;;;;;;;;;;5034396;28;20836;-73
2021/01/20 06:35:54;;;;;;;3.20;1.50;;;;;;;;;;5034358;28;20780;-72
2021/01/20 06:38:29;;;;;;;1.60;1.20;;;;;;;;;;5034374;28;20424;-72
2021/01/20 06:41:00;;;;;;;1.80;1.33;;;;;;;;;;5035091;28;20409;-72
2021/01/20 06:43:32;;;;;;;4.20;1.70;;;;;;;;;;5034135;28;20426;-72
2021/01/20 06:46:11;;;;;;;2.53;1.20;;;;;;;;;;5034917;28;20841;-72
2021/01/20 06:48:52;;;;;;;2.07;1.40;;;;;;;;;;5033770;28;20418;-72
2021/01/20 06:51:18;;;;;;;3.30;1.60;;;;;;;;;;5033894;28;20426;-72
2021/01/20 06:54:07;;;;;;;1.70;1.10;;;;;;;;;;5033656;28;20452;-72
2021/01/20 06:56:33;;;;;;;1.87;1.20;;;;;;;;;;5034882;28;20949;-72
2021/01/20 06:59:19;;;;;;;3.10;1.80;;;;;;;;;;5032150;28;20428;-72
2021/01/20 07:02:05;;;;;;;2.57;1.60;;;;;;;;;;5024537;28;20414;-72
2021/01/20 07:04:37;;;;;;;6.77;1.40;;;;;;;;;;5033168;28;20512;-72
2021/01/20 07:07:13;;;;;;;4.27;1.40;;;;;;;;;;5034536;28;20494;-72
2021/01/20 07:09:52;;;;;;;6.10;1.93;;;;;;;;;;5033257;28;20437;-72
2021/01/20 07:12:19;;;;;;;2.57;1.40;;;;;;;;;;5034818;28;20830;-72
2021/01/20 07:14:45;;;;;;;1.50;1.00;;;;;;;;;;5033171;28;20449;-72
2021/01/20 07:17:12;;;;;;;1.83;1.37;;;;;;;;;;5034303;28;20474;-71
2021/01/20 07:19:40;;;;;;;1.80;1.17;;;;;;;;;;5033678;28;20429;-72
2021/01/20 07:22:06;;;;;;;1.90;1.10;;;;;;;;;;5032408;28;20918;-72
2021/01/20 07:24:33;;;;;;;2.90;1.30;;;;;;;;;;5033035;28;21044;-71
2021/01/20 07:27:12;;;;;;;2.70;1.40;;;;;;;;;;5034155;28;20448;-72
2021/01/20 07:29:39;;;;;;;1.87;1.30;;;;;;;;;;5033206;28;20435;-71
2021/01/20 07:32:05;;;;;;;1.60;1.30;;;;;;;;;;5016394;28;20504;-69
2021/01/20 07:34:35;;;;;;;1.67;1.20;;;;;;;;;;5015251;28;20450;-70
2021/01/20 07:37:11;;;;;;;2.57;1.30;;;;;;;;;;5024626;28;20907;-69
2021/01/20 07:39:37;;;;;;;3.67;1.80;;;;;;;;;;5029831;28;20470;-69
2021/01/20 07:42:05;;;;;;;1.30;0.93;;;;;;;;;;5031203;28;20454;-71
2021/01/20 07:44:31;;;;;;;2.53;1.80;;;;;;;;;;5032691;28;20523;-71
2021/01/20 07:47:15;;;;;;;3.57;1.20;;;;;;;;;;5031433;28;20889;-71
2021/01/20 07:49:52;;;;;;;4.03;1.60;;;;;;;;;;5032168;28;21029;-70
2021/01/20 07:52:21;;;;;;;2.60;1.37;;;;;;;;;;5029315;28;20426;-71
2021/01/20 07:54:51;;;;;;;2.47;1.53;;;;;;;;;;5031878;28;20999;-70
2021/01/20 07:57:19;;;;;;;1.70;1.13;;;;;;;;;;5031657;28;20425;-70
2021/01/20 07:59:45;;;;;;;2.17;1.50;;;;;;;;;;5025568;28;20449;-70
2021/01/20 08:02:13;;;;;;;2.10;1.50;;;;;;;;;;5021838;28;20453;-69
2021/01/20 08:04:39;;;;;;;2.63;1.27;;;;;;;;;;5012574;28;20509;-70
2021/01/20 08:07:06;;;;;;;3.60;1.60;;;;;;;;;;5016783;28;21015;-70
2021/01/20 08:09:35;;;;;;;2.17;1.10;;;;;;;;;;5021738;28;20418;-70
2021/01/20 08:12:03;;;;;;;7.20;2.40;;;;;;;;;;5021514;28;20550;-70
2021/01/20 08:14:29;;;;;;;2.43;1.70;;;;;;;;;;5022587;28;20471;-70
2021/01/20 08:16:55;;;;;;;3.67;2.20;;;;;;;;;;5023542;28;20423;-70
2021/01/20 08:19:21;;;;;;;1.97;1.40;;;;;;;;;;5022419;28;20965;-69
2021/01/20 08:21:47;;;;;;;2.40;1.47;;;;;;;;;;5023003;28;20437;-70
2021/01/20 08:24:19;;;;;;;2.03;1.40;;;;;;;;;;5019273;28;21242;-70
2021/01/20 08:26:53;;;;;;;2.70;1.67;;;;;;;;;;5019773;28;21027;-70
2021/01/20 08:29:21;;;;;;;2.37;1.80;;;;;;;;;;5020872;28;20452;-69
2021/01/20 08:31:47;;;;;;;3.10;1.40;;;;;;;;;;5015631;28;20422;-70
2021/01/20 08:34:14;;;;;;;2.07;1.20;;;;;;;;;;5019531;28;20437;-70
2021/01/20 08:36:50;;;;;;;2.97;1.73;;;;;;;;;;5022052;28;20428;-69
2021/01/20 08:39:16;;;;;;;2.60;1.97;;;;;;;;;;5021006;28;20424;-69
2021/01/20 08:41:42;;;;;;;3.83;1.70;;;;;;;;;;5021190;28;20788;-69
2021/01/20 08:44:15;;;;;;;5.53;1.93;;;;;;;;;;5022492;28;20452;-69
2021/01/20 08:46:41;;;;;;;3.33;1.70;;;;;;;;;;5018800;28;20473;-69
2021/01/20 08:49:07;;;;;;;2.70;1.70;;;;;;;;;;5022065;28;20456;-70
2021/01/20 08:51:33;;;;;;;3.37;1.70;;;;;;;;;;5021710;28;20619;-70
2021/01/20 08:54:12;;;;;;;2.87;1.50;;;;;;;;;;5021552;28;20975;-71
2021/01/20 08:56:38;;;;;;;2.83;1.40;;;;;;;;;;5022598;28;20453;-72
2021/01/20 08:59:04;;;;;;;2.10;1.20;;;;;;;;;;5021479;28;20510;-71
2021/01/20 09:01:30;;;;;;;2.60;1.40;;;;;;;;;;5019894;28;20585;-71
2021/01/20 09:04:02;;;;;;;3.33;1.50;;;;;;;;;;5021479;28;20444;-71
2021/01/20 09:06:29;;;;;;;2.37;1.27;;;;;;;;;;5020309;28;20469;-72
2021/01/20 09:08:55;;;;;;;2.23;1.40;;;;;;;;;;5021619;28;20444;-70
2021/01/20 09:11:22;;;;;;;2.23;1.27;;;;;;;;;;5020812;28;20941;-70
2021/01/20 09:13:50;;;;;;;3.40;2.07;;;;;;;;;;5022870;28;20481;-70
2021/01/20 09:16:17;;;;;;;2.67;1.60;;;;;;;;;;5018893;28;20438;-70
2021/01/20 09:18:43;;;;;;;3.13;1.40;;;;;;;;;;5021599;28;20438;-70
2021/01/20 09:21:09;;;;;;;2.33;1.27;;;;;;;;;;5023011;28;20421;-71
2021/01/20 09:23:35;;;;;;;7.43;1.67;;;;;;;;;;5025360;28;20447;-70
2021/01/20 09:26:01;;;;;;;2.47;1.30;;;;;;;;;;5024644;28;20477;-70
2021/01/20 09:28:27;;;;;;;4.03;1.37;;;;;;;;;;5025961;28;22248;-70
2021/01/20 09:30:54;;;;;;;3.10;1.80;;;;;;;;;;5024709;28;20448;-70
2021/01/20 09:33:20;;;;;;;4.07;1.90;;;;;;;;;;5026739;28;20476;-70
2021/01/20 09:35:46;;;;;;;2.50;1.50;;;;;;;;;;5024706;28;20444;-70
2021/01/20 09:38:12;;;;;;;1.77;1.03;;;;;;;;;;5025832;28;20415;-70
2021/01/20 09:40:38;;;;;;;2.50;1.50;;;;;;;;;;5025045;28;20481;-70
2021/01/20 09:43:04;;;;;;;7.63;1.50;;;;;;;;;;5024030;28;20464;-70
2021/01/20 09:45:31;;;;;;;3.10;1.60;;;;;;;;;;5022607;28;20447;-71
2021/01/20 09:48:00;;;;;;;2.93;1.20;;;;;;;;;;5025920;28;20842;-70
2021/01/20 09:50:26;;;;;;;3.37;1.40;;;;;;;;;;5024431;28;20442;-70
2021/01/20 09:52:53;;;;;;;1.90;1.20;;;;;;;;;;5024873;28;20417;-71
2021/01/20 09:55:19;;;;;;;1.70;1.10;;;;;;;;;;5022562;28;20980;-69
2021/01/20 09:57:45;;;;;;;2.53;1.37;;;;;;;;;;5026165;28;20510;-69
2021/01/20 10:00:11;;;;;;;2.70;1.60;;;;;;;;;;5020683;28;20433;-71
2021/01/20 10:02:38;;;;;;;2.00;1.70;;;;;;;;;;5023866;28;20430;-70
2021/01/20 10:05:05;;;;;;;2.20;1.13;;;;;;;;;;5020866;28;20569;-71
2021/01/20 10:07:31;;;;;;;8.90;2.23;;;;;;;;;;5011058;28;21015;-70
2021/01/20 10:09:58;;;;;;;5.23;1.60;;;;;;;;;;5020950;28;20426;-70
2021/01/20 10:12:25;;;;;;;2.27;1.10;;;;;;;;;;5021720;28;20921;-70
2021/01/20 10:14:51;;;;;;;2.20;1.37;;;;;;;;;;5019668;28;20447;-70
2021/01/20 10:17:17;;;;;;;1.70;1.30;;;;;;;;;;5023428;28;20439;-70
2021/01/20 10:19:43;;;;;;;2.72;1.50;;;;;;;;;;5020774;28;20532;-70
2021/01/20 10:22:09;;;;;;;2.57;1.33;;;;;;;;;;5024252;28;20250;-70
2021/01/20 10:24:35;;;;;;;2.23;1.23;;;;;;;;;;5024229;28;20491;-70
2021/01/20 10:27:01;;;;;;;2.40;1.37;;;;;;;;;;5025175;28;21118;-70
2021/01/20 10:29:27;;;;;;;3.13;1.50;;;;;;;;;;5022689;28;20514;-70
2021/01/20 10:31:53;;;;;;;3.97;1.80;;;;;;;;;;5017935;28;20420;-71
2021/01/20 10:34:20;;;;;;;4.80;1.20;;;;;;;;;;5022260;28;20491;-70
2021/01/20 10:36:46;;;;;;;4.30;1.83;;;;;;;;;;5026203;28;20430;-71
2021/01/20 10:39:12;;;;;;;3.23;1.30;;;;;;;;;;5024138;28;21464;-70
2021/01/20 10:41:38;;;;;;;7.57;1.73;;;;;;;;;;5024842;28;20438;-71
2021/01/20 10:44:05;;;;;;;5.10;1.30;;;;;;;;;;5023763;28;20540;-71
2021/01/20 10:46:31;;;;;;;2.93;1.30;;;;;;;;;;5015288;28;20457;-70
2021/01/20 10:48:58;;;;;;;3.13;1.30;;;;;;;;;;5020676;28;20463;-71
2021/01/20 10:51:25;;;;;;;1.60;1.00;;;;;;;;;;5024156;28;20417;-70
2021/01/20 10:53:51;;;;;;;5.97;1.60;;;;;;;;;;5021207;28;20448;-70
2021/01/20 10:56:18;;;;;;;2.93;1.07;;;;;;;;;;5019212;28;20437;-70
2021/01/20 10:58:44;;;;;;;2.97;1.33;;;;;;;;;;5022783;28;20496;-70
2021/01/20 11:01:10;;;;;;;3.00;1.80;;;;;;;;;;5022833;28;20428;-71
2021/01/20 11:03:39;;;;;;;2.23;1.60;;;;;;;;;;5022407;28;20460;-70
2021/01/20 11:06:06;;;;;;;2.17;1.30;;;;;;;;;;5023825;28;20802;-70
2021/01/20 11:08:32;;;;;;;2.43;1.50;;;;;;;;;;5024980;28;20529;-72
2021/01/20 11:10:58;;;;;;;2.87;1.50;;;;;;;;;;5026315;28;20941;-72
2021/01/20 11:13:24;;;;;;;2.10;1.40;;;;;;;;;;5025919;28;20431;-72
2021/01/20 11:15:50;;;;;;;3.57;2.10;;;;;;;;;;5027132;28;20428;-71
2021/01/20 11:18:18;;;;;;;6.60;2.83;;;;;;;;;;5024627;28;20438;-72
2021/01/20 11:20:44;;;;;;;4.90;2.27;;;;;;;;;;5027097;28;20438;-73
2021/01/20 11:23:11;;;;;;;3.10;2.07;;;;;;;;;;5025133;28;20511;-73
2021/01/20 11:25:48;;;;;;;4.37;2.90;;;;;;;;;;5026800;28;20456;-71
2021/01/20 11:28:14;;;;;;;3.33;2.20;;;;;;;;;;5023033;28;20397;-71
2021/01/20 11:30:41;;;;;;;5.40;2.70;;;;;;;;;;5026530;28;20501;-71
2021/01/20 11:33:08;;;;;;;5.30;2.23;;;;;;;;;;5026689;28;20426;-73
2021/01/20 11:35:34;;;;;;;6.17;2.30;;;;;;;;;;5027499;28;20434;-72
2021/01/20 11:38:00;;;;;;;5.13;2.17;;;;;;;;;;5025794;28;20426;-72
2021/01/20 11:40:26;;;;;;;7.20;2.47;;;;;;;;;;5025648;28;20422;-73
2021/01/20 11:42:57;;;;;;;3.00;1.77;;;;;;;;;;5031273;28;20968;-72
2021/01/20 11:45:27;;;;;;;3.63;2.33;;;;;;;;;;5022748;28;20449;-72
2021/01/20 11:47:53;;;;;;;3.50;2.63;;;;;;;;;;5021606;28;20540;-72
2021/01/20 11:50:19;;;;;;;5.87;2.70;;;;;;;;;;5024893;28;20472;-72
2021/01/20 11:52:46;;;;;;;4.23;2.40;;;;;;;;;;5025260;28;21218;-72
2021/01/20 11:55:13;;;;;;;3.43;2.47;;;;;;;;;;5021534;28;20449;-71
2021/01/20 11:57:39;;;;;;;2.73;2.30;;;;;;;;;;5024057;28;20515;-71
2021/01/20 12:00:06;;;;;;;4.67;2.30;;;;;;;;;;5026307;28;20520;-72
2021/01/20 12:02:32;;;;;;;4.20;2.50;;;;;;;;;;5025061;28;20441;-71
2021/01/20 12:04:58;;;;;;;3.93;2.40;;;;;;;;;;5021709;28;20507;-72
2021/01/20 12:07:24;;;;;;;3.13;2.47;;;;;;;;;;5029379;28;20470;-71
2021/01/20 12:09:50;;;;;;;6.37;2.77;;;;;;;;;;5032353;28;20912;-71
2021/01/20 12:12:16;;;;;;;4.17;2.27;;;;;;;;;;5032125;28;20803;-71
2021/01/20 12:14:42;;;;;;;4.37;2.37;;;;;;;;;;5023483;28;20582;-71
2021/01/20 12:17:08;;;;;;;3.00;2.00;;;;;;;;;;5020227;28;20424;-72
2021/01/20 12:19:34;;;;;;;5.07;2.03;;;;;;;;;;5020921;28;20421;-71
2021/01/20 12:22:00;;;;;;;3.30;1.57;;;;;;;;;;5022246;28;20183;-71
2021/01/20 12:24:26;;;;;;;3.50;1.80;;;;;;;;;;5020863;28;20850;-72
2021/01/20 12:26:54;;;;;;;2.93;1.90;;;;;;;;;;5020596;28;20886;-72
2021/01/20 12:29:20;;;;;;;2.50;1.40;;;;;;;;;;5020071;28;20970;-72
2021/01/20 12:31:46;;;;;;;3.23;1.50;;;;;;;;;;5021254;28;20432;-71
2021/01/20 12:34:12;;;;;;;3.47;1.70;;;;;;;;;;5022211;28;20453;-72
2021/01/20 12:36:38;;;;;;;3.17;1.57;;;;;;;;;;5020560;28;20440;-72
2021/01/20 12:39:05;;;;;;;3.03;1.47;;;;;;;;;;5021017;28;20450;-72
2021/01/20 12:41:31;;;;;;;3.20;2.07;;;;;;;;;;5021964;28;20434;-72
2021/01/20 12:43:57;;;;;;;5.83;2.03;;;;;;;;;;5020589;28;20458;-72
2021/01/20 12:46:23;;;;;;;3.83;1.40;;;;;;;;;;5019006;28;20519;-72
2021/01/20 12:48:49;;;;;;;2.70;1.67;;;;;;;;;;5021114;28;20449;-73
2021/01/20 12:51:15;;;;;;;7.53;1.73;;;;;;;;;;5022118;28;21062;-72
2021/01/20 12:53:41;;;;;;;4.03;1.53;;;;;;;;;;5021915;28;20488;-72
2021/01/20 12:56:07;;;;;;;2.23;1.30;;;;;;;;;;5018063;28;20989;-74
2021/01/20 12:58:33;;;;;;;4.17;1.17;;;;;;;;;;5016635;28;20433;-72
2021/01/20 13:00:59;;;;;;;3.30;1.60;;;;;;;;;;5020099;28;20507;-73
2021/01/20 13:03:25;;;;;;;2.77;1.57;;;;;;;;;;5018492;28;20867;-73
2021/01/20 13:05:51;;;;;;;4.13;1.70;;;;;;;;;;5022539;28;20506;-73
2021/01/20 13:08:17;;;;;;;3.90;2.20;;;;;;;;;;5018687;28;20454;-72
2021/01/20 13:10:44;;;;;;;12.23;3.30;;;;;;;;;;5008422;28;20445;-74
2021/01/20 13:13:10;;;;;;;9.20;3.17;;;;;;;;;;5019995;28;20910;-73
2021/01/20 13:15:36;;;;;;;5.73;2.23;;;;;;;;;;5021541;28;20944;-73
2021/01/20 13:18:02;;;;;;;8.47;1.90;;;;;;;;;;5023927;28;20420;-72
2021/01/20 13:20:28;;;;;;;2.90;1.77;;;;;;;;;;5022187;28;20428;-72
2021/01/20 13:22:54;;;;;;;3.83;1.67;;;;;;;;;;5021540;28;20503;-71
2021/01/20 13:25:22;;;;;;;2.17;1.50;;;;;;;;;;5020959;28;20465;-71
2021/01/20 13:27:48;;;;;;;2.70;1.33;;;;;;;;;;5020460;28;21201;-69
2021/01/20 13:30:14;;;;;;;5.27;1.73;;;;;;;;;;5020698;28;20457;-70
2021/01/20 13:32:40;;;;;;;12.30;2.77;;;;;;;;;;5021641;28;20787;-72
2021/01/20 13:35:07;;;;;;;5.03;2.13;;;;;;;;;;5020619;28;20482;-70
2021/01/20 13:37:32;;;;;;;5.70;2.23;;;;;;;;;;5021739;28;20433;-69
2021/01/20 13:39:58;;;;;;;5.47;3.07;;;;;;;;;;5022052;28;20458;-70
2021/01/20 13:42:24;;;;;;;13.57;3.40;;;;;;;;;;5021160;28;20932;-70
2021/01/20 13:44:51;;;;;;;7.10;3.10;;;;;;;;;;5020103;28;20456;-70
2021/01/20 13:47:17;;;;;;;7.97;3.40;;;;;;;;;;5022010;28;20462;-70
2021/01/20 13:49:47;;;;;;;7.10;3.60;;;;;;;;;;5020627;28;20451;-70
2021/01/20 13:52:13;;;;;;;7.40;4.13;;;;;;;;;;5021934;28;20427;-70
2021/01/20 13:54:40;;;;;;;5.80;3.03;;;;;;;;;;5020392;28;20455;-71
2021/01/20 13:57:06;;;;;;;9.20;4.23;;;;;;;;;;5021559;28;20432;-70
2021/01/20 13:59:33;;;;;;;8.60;3.90;;;;;;;;;;5020041;28;20424;-71
2021/01/20 14:01:59;;;;;;;8.17;4.30;;;;;;;;;;5021608;28;20437;-71
2021/01/20 14:04:25;;;;;;;12.53;4.80;;;;;;;;;;5021084;28;20461;-71
2021/01/20 14:06:51;;;;;;;10.60;4.33;;;;;;;;;;5019194;28;20466;-70
2021/01/20 14:09:17;;;;;;;6.00;3.57;;;;;;;;;;5026004;28;20866;-71
2021/01/20 14:11:43;;;;;;;25.93;8.03;;;;;;;;;;5025557;28;20431;-70
2021/01/20 14:14:09;;;;;;;10.20;4.20;;;;;;;;;;5024710;28;20457;-70
2021/01/20 14:16:35;;;;;;;12.30;2.93;;;;;;;;;;5025534;28;20430;-70
2021/01/20 14:19:02;;;;;;;5.50;3.37;;;;;;;;;;5025311;28;20784;-70
2021/01/20 14:21:28;;;;;;;6.20;3.10;;;;;;;;;;5025708;28;20442;-69
2021/01/20 14:23:54;;;;;;;4.17;2.93;;;;;;;;;;5025545;28;20452;-70
2021/01/20 14:26:21;;;;;;;5.27;2.77;;;;;;;;;;5022244;28;20852;-70
2021/01/20 14:28:47;;;;;;;5.80;3.23;;;;;;;;;;5022566;28;20451;-70
2021/01/20 14:31:13;;;;;;;7.13;3.10;;;;;;;;;;5021191;28;20436;-70
2021/01/20 14:33:39;;;;;;;12.43;4.33;;;;;;;;;;5023760;28;20445;-70
2021/01/20 14:36:05;;;;;;;11.90;6.27;;;;;;;;;;5023440;28;20417;-70
2021/01/20 14:38:31;;;;;;;6.53;4.60;;;;;;;;;;5024663;28;20427;-71
2021/01/20 14:40:57;;;;;;;6.93;4.50;;;;;;;;;;5021741;28;21281;-69
2021/01/20 14:43:23;;;;;;;12.30;4.10;;;;;;;;;;5023659;28;20575;-69